createdAt,value
2023-01-19T00:01:08.000Z,10.53
2023-01-19T00:03:47.683Z,10.47
2023-01-19T00:06:17.941Z,12.80
2023-01-19T00:08:49.880Z,10.00
2023-01-19T00:11:22.954Z,10.87
2023-01-19T00:13:54.216Z,9.93
2023-01-19T00:16:29.341Z,11.67
2023-01-19T00:19:07.986Z,9.27
2023-01-19T00:21:38.727Z,10.77
2023-01-19T00:24:06.453Z,9.50
2023-01-19T00:26:42.089Z,10.20
2023-01-19T00:29:14.530Z,9.10
2023-01-19T00:31:41.092Z,10.17
2023-01-19T00:34:08.321Z,9.90
2023-01-19T00:36:34.825Z,9.97
2023-01-19T00:39:01.262Z,8.30
2023-01-19T00:41:59.875Z,9.07
2023-01-19T00:44:26.328Z,8.20
2023-01-19T00:46:52.807Z,9.27
2023-01-19T00:49:19.196Z,7.93
2023-01-19T00:51:45.614Z,8.80
2023-01-19T00:54:13.180Z,9.90
2023-01-19T00:56:39.645Z,9.23
2023-01-19T00:59:06.111Z,9.83
2023-01-19T01:01:45.173Z,8.73
2023-01-19T01:04:13.519Z,10.70
2023-01-19T01:06:40.065Z,8.13
2023-01-19T01:09:11.757Z,10.67
2023-01-19T01:11:39.892Z,8.77
2023-01-19T01:14:07.269Z,6.73
2023-01-19T01:16:33.910Z,7.73
2023-01-19T01:19:00.353Z,8.67
2023-01-19T01:21:26.865Z,11.93
2023-01-19T01:23:53.244Z,9.17
2023-01-19T01:26:19.640Z,9.93
2023-01-19T01:28:46.110Z,8.87
2023-01-19T01:31:12.792Z,8.20
2023-01-19T01:33:41.740Z,7.90
2023-01-19T01:36:10.190Z,7.43
2023-01-19T01:38:37.199Z,8.63
2023-01-19T01:41:04.557Z,11.83
2023-01-19T01:43:58.667Z,9.70
2023-01-19T01:46:27.528Z,9.70
2023-01-19T01:49:15.663Z,9.37
2023-01-19T01:51:48.460Z,8.77
2023-01-19T01:54:33.013Z,8.63
2023-01-19T01:57:07.111Z,8.70
2023-01-19T01:59:41.974Z,9.77
2023-01-19T02:02:37.566Z,9.87
2023-01-19T02:05:12.601Z,9.27
2023-01-19T02:08:21.360Z,10.13
2023-01-19T02:11:10.677Z,8.93
2023-01-19T02:13:44.300Z,10.43
2023-01-19T02:16:15.256Z,9.70
2023-01-19T02:18:43.338Z,10.50
2023-01-19T02:21:16.490Z,10.87
2023-01-19T02:23:53.477Z,11.20
2023-01-19T02:26:31.080Z,10.27
2023-01-19T02:29:08.857Z,10.33
2023-01-19T02:31:37.343Z,8.43
2023-01-19T02:34:05.051Z,9.87
2023-01-19T02:36:53.477Z,11.30
2023-01-19T02:39:33.819Z,9.37
2023-01-19T02:42:04.314Z,10.57
2023-01-19T02:44:32.274Z,11.30
2023-01-19T02:46:59.124Z,9.93
2023-01-19T02:49:29.997Z,9.77
2023-01-19T02:51:57.620Z,10.03
2023-01-19T02:54:29.975Z,9.77
2023-01-19T02:57:19.352Z,10.03
2023-01-19T02:59:48.783Z,13.53
2023-01-19T03:02:52.796Z,11.53
2023-01-19T03:05:34.076Z,12.07
2023-01-19T03:08:06.440Z,10.30
2023-01-19T03:10:41.039Z,11.13
2023-01-19T03:13:22.196Z,10.43
2023-01-19T03:15:52.848Z,10.23
2023-01-19T03:18:23.079Z,10.97
2023-01-19T03:20:53.354Z,10.50
2023-01-19T03:23:22.200Z,11.43
2023-01-19T03:25:50.380Z,10.33
2023-01-19T03:28:20.112Z,11.17
2023-01-19T03:30:56.395Z,12.33
2023-01-19T03:33:29.262Z,13.30
2023-01-19T03:36:06.437Z,10.60
2023-01-19T03:38:37.485Z,10.00
2023-01-19T03:41:13.937Z,11.40
2023-01-19T03:43:43.053Z,12.47
2023-01-19T03:46:11.258Z,12.47
2023-01-19T03:48:39.179Z,11.70
2023-01-19T03:51:09.294Z,11.70
2023-01-19T03:53:36.752Z,15.37
2023-01-19T03:56:04.231Z,13.37
2023-01-19T03:58:31.577Z,12.07
2023-01-19T04:00:58.936Z,14.40
2023-01-19T04:03:26.080Z,12.33
2023-01-19T04:05:57.329Z,12.40
2023-01-19T04:08:27.443Z,13.00
2023-01-19T04:10:54.534Z,13.00
2023-01-19T04:13:23.793Z,13.40
2023-01-19T04:15:54.103Z,12.80
2023-01-19T04:18:21.238Z,12.50
2023-01-19T04:20:48.206Z,11.97
2023-01-19T04:23:15.458Z,11.97
2023-01-19T04:25:42.817Z,15.27
2023-01-19T04:28:10.293Z,13.33
2023-01-19T04:30:37.619Z,13.20
2023-01-19T04:33:04.482Z,13.83
2023-01-19T04:35:30.898Z,13.07
2023-01-19T04:37:57.274Z,13.13
2023-01-19T04:40:23.756Z,13.13
2023-01-19T04:42:50.951Z,12.97
2023-01-19T04:45:17.391Z,11.97
2023-01-19T04:47:43.861Z,15.33
2023-01-19T04:50:11.702Z,13.80
2023-01-19T04:52:38.269Z,12.43
2023-01-19T04:55:06.164Z,15.07
2023-01-19T04:57:32.703Z,13.20
2023-01-19T04:59:59.206Z,13.20
2023-01-19T05:02:26.213Z,13.37
2023-01-19T05:04:53.225Z,12.10
2023-01-19T05:07:19.681Z,12.53
2023-01-19T05:09:46.143Z,11.43
2023-01-19T05:12:12.749Z,16.00
2023-01-19T05:14:39.263Z,12.77
2023-01-19T05:17:05.775Z,15.67
2023-01-19T05:19:33.284Z,14.97
2023-01-19T05:22:11.093Z,13.03
2023-01-19T05:24:38.074Z,13.47
2023-01-19T05:27:05.242Z,13.97
2023-01-19T05:29:32.318Z,13.33
2023-01-19T05:31:59.326Z,14.60
2023-01-19T05:34:26.555Z,14.00
2023-01-19T05:36:53.862Z,13.63
2023-01-19T05:39:21.319Z,11.13
2023-01-19T05:41:48.129Z,12.60
2023-01-19T05:44:15.490Z,16.47
2023-01-19T05:46:42.491Z,13.50
2023-01-19T05:49:10.120Z,12.67
2023-01-19T05:51:38.611Z,15.73
2023-01-19T05:54:09.245Z,11.67
2023-01-19T05:56:36.144Z,14.57
2023-01-19T05:59:03.138Z,12.83
2023-01-19T06:01:35.089Z,11.37
2023-01-19T06:04:03.514Z,11.80
2023-01-19T06:06:33.516Z,12.17
2023-01-19T06:09:00.624Z,11.50
2023-01-19T06:11:30.439Z,14.33
2023-01-19T06:14:06.380Z,14.13
2023-01-19T06:16:36.502Z,11.93
2023-01-19T06:19:03.596Z,11.67
2023-01-19T06:21:32.317Z,13.57
2023-01-19T06:23:58.776Z,13.73
2023-01-19T06:26:26.159Z,12.20
2023-01-19T06:28:52.610Z,11.57
2023-01-19T06:31:19.170Z,10.87
2023-01-19T06:33:45.735Z,12.73
2023-01-19T06:36:12.214Z,16.47
2023-01-19T06:38:38.615Z,13.83
2023-01-19T06:41:05.523Z,13.37
2023-01-19T06:43:32.695Z,13.17
2023-01-19T06:46:00.496Z,14.27
2023-01-19T06:48:27.077Z,11.60
2023-01-19T06:50:53.457Z,13.27
2023-01-19T06:53:22.142Z,13.23
2023-01-19T06:55:48.747Z,14.93
2023-01-19T06:58:15.231Z,14.33
2023-01-19T07:00:43.019Z,17.57
2023-01-19T07:03:18.950Z,13.00
2023-01-19T07:05:45.492Z,14.43
2023-01-19T07:08:12.139Z,14.23
2023-01-19T07:11:25.799Z,12.20
2023-01-19T07:13:25.198Z,10.30
2023-01-19T07:15:51.668Z,12.23
2023-01-19T07:18:18.203Z,10.93
2023-01-19T07:20:46.943Z,13.23
2023-01-19T07:23:14.015Z,12.77
2023-01-19T07:25:48.941Z,12.07
2023-01-19T07:28:17.992Z,11.27
2023-01-19T07:30:46.361Z,11.97
2023-01-19T07:33:15.539Z,11.60
2023-01-19T07:35:50.171Z,12.27
2023-01-19T07:38:21.309Z,14.40
2023-01-19T07:40:51.152Z,13.40
2023-01-19T07:43:18.319Z,10.97
2023-01-19T07:45:47.220Z,12.23
2023-01-19T07:48:14.316Z,12.17
2023-01-19T07:50:41.313Z,12.77
2023-01-19T07:53:14.695Z,12.27
2023-01-19T07:55:41.497Z,10.70
2023-01-19T07:58:08.625Z,13.37
2023-01-19T08:00:37.149Z,14.77
2023-01-19T08:03:05.288Z,12.53
2023-01-19T08:05:33.341Z,12.63
2023-01-19T08:08:00.425Z,13.77
2023-01-19T08:10:31.201Z,13.80
2023-01-19T08:12:59.666Z,12.00
2023-01-19T08:15:27.365Z,12.63
2023-01-19T08:18:03.765Z,9.47
2023-01-19T08:20:33.792Z,11.23
2023-01-19T08:23:02.308Z,12.03
2023-01-19T08:25:42.368Z,10.97
2023-01-19T08:28:11.139Z,9.33
2023-01-19T08:30:38.949Z,11.53
2023-01-19T08:33:08.411Z,11.80
2023-01-19T08:35:40.671Z,11.03
2023-01-19T08:38:17.776Z,11.77
2023-01-19T08:40:44.788Z,11.70
2023-01-19T08:43:14.377Z,12.60
2023-01-19T08:45:49.254Z,11.93
2023-01-19T08:48:21.932Z,9.77
2023-01-19T08:50:53.352Z,10.60
2023-01-19T08:53:23.971Z,9.87
2023-01-19T08:56:00.384Z,10.47
2023-01-19T08:58:30.973Z,12.27
2023-01-19T09:01:03.925Z,9.30
2023-01-19T09:03:37.134Z,9.63
2023-01-19T09:06:17.303Z,9.37
2023-01-19T09:08:44.324Z,8.70
2023-01-19T09:11:12.165Z,11.03
2023-01-19T09:13:39.633Z,8.97
2023-01-19T09:16:07.829Z,9.10
2023-01-19T09:18:35.429Z,9.80
2023-01-19T09:21:03.903Z,8.27
2023-01-19T09:23:30.484Z,10.60
2023-01-19T09:25:59.565Z,9.70
2023-01-19T09:28:26.557Z,10.27
2023-01-19T09:30:53.214Z,9.47
2023-01-19T09:33:20.212Z,7.47
2023-01-19T09:35:48.402Z,8.67
2023-01-19T09:38:16.735Z,7.60
2023-01-19T09:40:47.508Z,10.73
2023-01-19T09:43:16.910Z,8.97
2023-01-19T09:45:47.801Z,10.53
2023-01-19T09:48:57.710Z,8.67
2023-01-19T09:51:32.772Z,8.17
2023-01-19T09:54:14.446Z,10.30
2023-01-19T09:56:41.765Z,10.43
2023-01-19T09:59:17.840Z,10.30
2023-01-19T10:01:59.341Z,9.30
2023-01-19T10:04:39.557Z,8.73
2023-01-19T10:07:35.211Z,8.73
2023-01-19T10:10:27.906Z,8.70
2023-01-19T10:12:57.716Z,10.50
2023-01-19T10:15:42.963Z,8.23
2023-01-19T10:18:36.056Z,9.07
2023-01-19T10:21:11.702Z,7.67
2023-01-19T10:24:07.221Z,7.00
2023-01-19T10:26:56.163Z,7.07
2023-01-19T10:29:36.621Z,10.90
2023-01-19T10:32:33.637Z,7.60
2023-01-19T10:35:03.411Z,9.77
2023-01-19T10:37:40.797Z,11.97
2023-01-19T10:40:13.974Z,8.37
2023-01-19T10:42:42.617Z,8.17
2023-01-19T10:45:17.864Z,8.40
2023-01-19T10:47:46.904Z,7.23
2023-01-19T10:50:29.872Z,8.23
2023-01-19T10:52:59.918Z,8.23
2023-01-19T10:55:38.686Z,7.73
2023-01-19T10:58:26.694Z,6.87
2023-01-19T11:00:53.901Z,8.67
2023-01-19T11:03:32.065Z,8.40
2023-01-19T11:06:24.270Z,6.10
2023-01-19T11:08:52.588Z,10.17
2023-01-19T11:11:21.529Z,7.73
2023-01-19T11:14:04.819Z,8.23
2023-01-19T11:16:34.738Z,9.30
2023-01-19T11:19:03.129Z,9.07
2023-01-19T11:21:32.057Z,7.95
2023-01-19T11:24:08.908Z,7.87
2023-01-19T11:26:44.936Z,8.63
2023-01-19T11:29:19.145Z,8.47
2023-01-19T11:31:45.883Z,7.17
2023-01-19T11:34:44.741Z,8.17
2023-01-19T11:37:17.224Z,9.97
2023-01-19T11:39:49.952Z,8.87
2023-01-19T11:42:17.620Z,9.07
2023-01-19T11:45:05.217Z,8.30
2023-01-19T11:47:45.227Z,7.83
2023-01-19T11:50:30.454Z,8.27
2023-01-19T11:53:24.890Z,10.23
2023-01-19T11:56:15.180Z,8.10
2023-01-19T11:58:47.416Z,7.87
2023-01-19T12:01:27.676Z,7.83
2023-01-19T12:04:04.493Z,7.33
2023-01-19T12:06:34.934Z,10.17
2023-01-19T12:09:20.119Z,7.57
2023-01-19T12:11:55.939Z,9.07
2023-01-19T12:14:34.984Z,10.23
2023-01-19T12:17:20.876Z,8.83
2023-01-19T12:19:59.559Z,8.87
2023-01-19T12:22:32.186Z,7.97
2023-01-19T12:25:15.900Z,7.83
2023-01-19T12:27:53.522Z,7.67
2023-01-19T12:30:29.199Z,8.47
2023-01-19T12:33:20.991Z,6.80
2023-01-19T12:36:01.090Z,9.87
2023-01-19T12:38:46.410Z,7.50
2023-01-19T12:41:28.735Z,8.03
2023-01-19T12:44:16.745Z,9.30
2023-01-19T12:46:54.773Z,10.20
2023-01-19T12:49:24.253Z,9.02
2023-01-19T12:51:53.991Z,9.93
2023-01-19T12:54:32.122Z,8.30
2023-01-19T12:57:09.238Z,7.90
2023-01-19T12:59:40.044Z,7.97
2023-01-19T13:02:26.053Z,7.00
2023-01-19T13:05:20.609Z,7.07
2023-01-19T13:08:02.788Z,7.90
2023-01-19T13:11:02.138Z,8.43
2023-01-19T13:13:40.388Z,9.40
2023-01-19T13:16:19.544Z,11.20
2023-01-19T13:18:48.323Z,8.23
2023-01-19T13:21:32.814Z,7.13
2023-01-19T13:24:07.778Z,8.40
2023-01-19T13:26:38.816Z,12.53
2023-01-19T13:29:05.652Z,7.37
2023-01-19T13:31:41.046Z,8.13
2023-01-19T13:34:14.421Z,8.37
2023-01-19T13:36:46.132Z,7.90
2023-01-19T13:39:26.913Z,7.63
2023-01-19T13:42:00.820Z,11.30
2023-01-19T13:44:42.391Z,8.30
2023-01-19T13:47:17.515Z,11.83
2023-01-19T13:50:04.231Z,8.40
2023-01-19T13:52:34.159Z,9.37
2023-01-19T13:55:07.823Z,8.17
2023-01-19T13:57:43.853Z,8.97
2023-01-19T14:00:16.403Z,10.60
2023-01-19T14:02:57.324Z,9.77
2023-01-19T14:05:48.414Z,11.37
2023-01-19T14:08:20.861Z,9.93
2023-01-19T14:11:02.387Z,11.13
2023-01-19T14:13:41.839Z,13.27
2023-01-19T14:16:34.156Z,10.07
2023-01-19T14:19:04.270Z,10.17
2023-01-19T14:21:55.443Z,10.80
2023-01-19T14:24:48.695Z,12.37
2023-01-19T14:27:43.640Z,12.10
2023-01-19T14:30:32.918Z,10.00
2023-01-19T14:33:00.091Z,11.83
2023-01-19T14:35:27.077Z,12.17
2023-01-19T14:37:56.210Z,10.73
2023-01-19T14:40:24.815Z,11.27
2023-01-19T14:42:53.667Z,9.53
2023-01-19T14:45:35.094Z,11.27
2023-01-19T14:48:21.083Z,11.47
2023-01-19T14:51:03.138Z,12.30
2023-01-19T14:53:46.774Z,9.53
2023-01-19T14:56:30.167Z,9.30
2023-01-19T14:58:58.974Z,13.17
2023-01-19T15:01:34.244Z,10.30
2023-01-19T15:04:06.140Z,12.70
2023-01-19T15:06:42.822Z,11.00
2023-01-19T15:09:12.302Z,9.63
2023-01-19T15:11:39.652Z,10.63
2023-01-19T15:14:06.252Z,10.50
2023-01-19T15:16:34.663Z,10.10
2023-01-19T15:19:01.103Z,12.40
2023-01-19T15:21:27.556Z,16.53
2023-01-19T15:23:55.003Z,11.73
2023-01-19T15:26:23.905Z,11.77
2023-01-19T15:28:50.837Z,11.20
2023-01-19T15:31:23.051Z,11.23
2023-01-19T15:33:49.739Z,10.67
2023-01-19T15:36:21.469Z,12.73
2023-01-19T15:38:50.750Z,10.87
2023-01-19T15:41:23.564Z,11.77
2023-01-19T15:43:50.888Z,10.97
2023-01-19T15:46:20.692Z,14.37
2023-01-19T15:48:47.897Z,11.07
2023-01-19T15:51:16.355Z,12.77
2023-01-19T15:53:44.768Z,12.07
2023-01-19T15:56:19.511Z,11.63
2023-01-19T15:58:45.981Z,11.73
2023-01-19T16:01:17.970Z,11.93
2023-01-19T16:03:45.111Z,11.47
2023-01-19T16:06:12.714Z,12.57
2023-01-19T16:08:39.933Z,11.97
2023-01-19T16:11:24.891Z,13.53
2023-01-19T16:13:51.864Z,11.97
2023-01-19T16:16:20.863Z,13.00
2023-01-19T16:18:48.691Z,11.70
2023-01-19T16:21:16.155Z,11.47
2023-01-19T16:23:42.811Z,11.80
2023-01-19T16:26:34.559Z,12.90
2023-01-19T16:29:10.007Z,11.53
2023-01-19T16:31:41.228Z,12.50
2023-01-19T16:34:08.813Z,14.10
2023-01-19T16:36:40.942Z,11.07
2023-01-19T16:39:13.916Z,12.93
2023-01-19T16:41:42.134Z,13.07
2023-01-19T16:44:30.989Z,12.30
2023-01-19T16:46:57.969Z,10.60
2023-01-19T16:49:28.498Z,11.83
2023-01-19T16:51:57.163Z,12.53
2023-01-19T16:54:27.778Z,13.63
2023-01-19T16:56:56.437Z,12.83
2023-01-19T16:59:24.957Z,11.57
2023-01-19T17:01:52.414Z,13.27
